메인 페이지
METAR-TAF:

METAR-TAF

공항 :

스리나가르, 인도

위도: 33-59-14N, 경도: 074-46-27E, 고도: 1655m

현재 날씨관측

예보는 56분 전, 22:30시(UTC)에 발표되었습니다.
남서3kt
온도 11°C
습도 100%
기압 1023 hPa
시정: 5000m
고도 1000ft 상공 구름 보통
고도 2000ft 상공 구름 보통
고도 8000ft 상공 흐림

METAR: VISR 242230Z 22003KT 5000 BR-RA SCT010 SCT020 OVC080 11/11 Q1023 NOSIG

시각: 04:56 (23:26 UTC)

예보

예보는 13 시간 56분 전, 09:30시(UTC)에 발표되었습니다.
예보 대상 시간: 24일 12시부터 24일 24시까지 (UTC)
8kt
시정: 6000m
고도 1500ft 상공 구름 보통
고도 2000ft 상공 구름 보통
고도 9000ft 상공 구름 많음
일시적
24일 20시부터 24일 22시까지 (UTC)
서북서10kt, 순간 최대 풍속 20kt
시정: 4000m
고도 1500ft 상공 구름 보통
고도 8000ft 상공 구름 많음
뇌우, 비

TAF: VISR 240930Z 2412/2424 26008KT 6000 RA SCT015 SCT020 FEW025TCU/CB BKN090 TEMPO 2420/2422 29010G20KT 4000 TSRA SCT015 FEW025TCU/CB BKN080

4,000개 이상의 공항 관측 자료 및 예보 (METAR 및 TAF 보고).

지도상에서 검색 가능한 기상관측소가 노란 점과 빨간 점으로 표시되어 있습니다.

기상관측소 명을 보려면 표시 위로 마우스를 이동하세요.

날씨 관측과 예보를 보려면 클릭하세요.

지도 변경 : 확대하려면 엑스 표시가 있는 녹색 버튼, 축소하려면 빼기 표시가 있는 녹색 버튼, 다음 페이지의 지도를 보려면 녹색 화살표를 클릭하세요.


METAR-TAF: